sensor_id;sensor_type;location;lat;lon;timestamp;pressure;altitude;pressure_sealevel;temperature
15079;BMP180;6932;51.438;5.470;2023-07-31T00:00:32;100718.00;;;22.20
15079;BMP180;6932;51.438;5.470;2023-07-31T00:02:58;100707.00;;;22.20
15079;BMP180;6932;51.438;5.470;2023-07-31T00:05:24;100699.00;;;22.20
15079;BMP180;6932;51.438;5.470;2023-07-31T00:07:49;100708.00;;;22.20
15079;BMP180;6932;51.438;5.470;2023-07-31T00:10:15;100703.00;;;22.20
15079;BMP180;6932;51.438;5.470;2023-07-31T00:12:44;100713.00;;;22.20
15079;BMP180;6932;51.438;5.470;2023-07-31T00:15:10;100702.00;;;22.20
15079;BMP180;6932;51.438;5.470;2023-07-31T00:17:37;100721.00;;;22.20
15079;BMP180;6932;51.438;5.470;2023-07-31T00:20:03;100714.00;;;22.20
15079;BMP180;6932;51.438;5.470;2023-07-31T00:22:29;100710.00;;;22.20
15079;BMP180;6932;51.438;5.470;2023-07-31T00:24:56;100703.00;;;22.20
15079;BMP180;6932;51.438;5.470;2023-07-31T00:27:22;100702.00;;;22.20
15079;BMP180;6932;51.438;5.470;2023-07-31T00:29:48;100707.00;;;22.20
15079;BMP180;6932;51.438;5.470;2023-07-31T00:32:14;100702.00;;;22.20
15079;BMP180;6932;51.438;5.470;2023-07-31T00:34:39;100705.00;;;22.20
15079;BMP180;6932;51.438;5.470;2023-07-31T00:37:05;100690.00;;;22.20
15079;BMP180;6932;51.438;5.470;2023-07-31T00:39:33;100692.00;;;22.20
15079;BMP180;6932;51.438;5.470;2023-07-31T00:41:59;100692.00;;;22.20
15079;BMP180;6932;51.438;5.470;2023-07-31T00:44:25;100687.00;;;22.20
15079;BMP180;6932;51.438;5.470;2023-07-31T00:46:51;100689.00;;;22.20
15079;BMP180;6932;51.438;5.470;2023-07-31T00:49:16;100685.00;;;22.20
15079;BMP180;6932;51.438;5.470;2023-07-31T00:51:42;100692.00;;;22.20
15079;BMP180;6932;51.438;5.470;2023-07-31T00:54:09;100688.00;;;22.20
15079;BMP180;6932;51.438;5.470;2023-07-31T00:56:35;100681.00;;;22.20
15079;BMP180;6932;51.438;5.470;2023-07-31T00:59:00;100694.00;;;22.20
15079;BMP180;6932;51.438;5.470;2023-07-31T01:01:27;100689.00;;;22.20
15079;BMP180;6932;51.438;5.470;2023-07-31T01:03:53;100689.00;;;22.20
15079;BMP180;6932;51.438;5.470;2023-07-31T01:06:48;100685.00;;;22.10
15079;BMP180;6932;51.438;5.470;2023-07-31T01:12:24;100688.00;;;22.10
15079;BMP180;6932;51.438;5.470;2023-07-31T01:15:07;100682.00;;;22.10
15079;BMP180;6932;51.438;5.470;2023-07-31T01:17:37;100669.00;;;22.10
15079;BMP180;6932;51.438;5.470;2023-07-31T01:20:20;100667.00;;;22.10
15079;BMP180;6932;51.438;5.470;2023-07-31T01:31:20;100684.00;;;22.00
15079;BMP180;6932;51.438;5.470;2023-07-31T01:33:48;100687.00;;;22.10
15079;BMP180;6932;51.438;5.470;2023-07-31T01:36:14;100679.00;;;22.10
15079;BMP180;6932;51.438;5.470;2023-07-31T01:38:39;100675.00;;;22.10
15079;BMP180;6932;51.438;5.470;2023-07-31T01:41:05;100677.00;;;22.10
15079;BMP180;6932;51.438;5.470;2023-07-31T01:43:31;100664.00;;;22.10
15079;BMP180;6932;51.438;5.470;2023-07-31T01:45:57;100673.00;;;22.10
15079;BMP180;6932;51.438;5.470;2023-07-31T01:48:22;100668.00;;;22.10
15079;BMP180;6932;51.438;5.470;2023-07-31T01:50:48;100664.00;;;22.10
15079;BMP180;6932;51.438;5.470;2023-07-31T01:53:14;100663.00;;;22.10
15079;BMP180;6932;51.438;5.470;2023-07-31T01:55:40;100665.00;;;22.10
15079;BMP180;6932;51.438;5.470;2023-07-31T01:58:05;100673.00;;;22.10
15079;BMP180;6932;51.438;5.470;2023-07-31T02:00:31;100665.00;;;22.10
15079;BMP180;6932;51.438;5.470;2023-07-31T02:02:57;100658.00;;;22.00
15079;BMP180;6932;51.438;5.470;2023-07-31T02:05:22;100655.00;;;22.00
15079;BMP180;6932;51.438;5.470;2023-07-31T02:07:48;100656.00;;;22.00
15079;BMP180;6932;51.438;5.470;2023-07-31T02:10:14;100643.00;;;22.00
15079;BMP180;6932;51.438;5.470;2023-07-31T02:12:41;100639.00;;;22.00
15079;BMP180;6932;51.438;5.470;2023-07-31T02:15:07;100652.00;;;22.00
15079;BMP180;6932;51.438;5.470;2023-07-31T02:17:33;100630.00;;;22.00
15079;BMP180;6932;51.438;5.470;2023-07-31T02:19:59;100632.00;;;22.00
15079;BMP180;6932;51.438;5.470;2023-07-31T02:22:25;100639.00;;;22.00
15079;BMP180;6932;51.438;5.470;2023-07-31T02:24:51;100639.00;;;22.00
15079;BMP180;6932;51.438;5.470;2023-07-31T02:27:16;100630.00;;;22.00
15079;BMP180;6932;51.438;5.470;2023-07-31T02:29:42;100636.00;;;22.00
15079;BMP180;6932;51.438;5.470;2023-07-31T02:32:08;100625.00;;;22.00
15079;BMP180;6932;51.438;5.470;2023-07-31T02:34:34;100622.00;;;22.00
15079;BMP180;6932;51.438;5.470;2023-07-31T02:36:59;100632.00;;;22.00
15079;BMP180;6932;51.438;5.470;2023-07-31T02:39:25;100608.00;;;22.00
15079;BMP180;6932;51.438;5.470;2023-07-31T02:41:51;100612.00;;;22.00
15079;BMP180;6932;51.438;5.470;2023-07-31T02:44:16;100614.00;;;22.00
15079;BMP180;6932;51.438;5.470;2023-07-31T02:46:42;100611.00;;;22.00
15079;BMP180;6932;51.438;5.470;2023-07-31T02:49:08;100625.00;;;22.00
15079;BMP180;6932;51.438;5.470;2023-07-31T02:51:34;100612.00;;;22.00
15079;BMP180;6932;51.438;5.470;2023-07-31T02:53:59;100607.00;;;22.00
15079;BMP180;6932;51.438;5.470;2023-07-31T02:56:25;100609.00;;;22.00
15079;BMP180;6932;51.438;5.470;2023-07-31T02:58:51;100607.00;;;22.00
15079;BMP180;6932;51.438;5.470;2023-07-31T03:01:16;100602.00;;;22.00
15079;BMP180;6932;51.438;5.470;2023-07-31T03:03:42;100595.00;;;22.00
15079;BMP180;6932;51.438;5.470;2023-07-31T03:06:08;100604.00;;;22.00
15079;BMP180;6932;51.438;5.470;2023-07-31T03:08:33;100598.00;;;22.00
15079;BMP180;6932;51.438;5.470;2023-07-31T03:10:59;100595.00;;;22.00
15079;BMP180;6932;51.438;5.470;2023-07-31T03:13:25;100596.00;;;22.00
15079;BMP180;6932;51.438;5.470;2023-07-31T03:15:51;100599.00;;;22.00
15079;BMP180;6932;51.438;5.470;2023-07-31T03:18:16;100595.00;;;22.00
15079;BMP180;6932;51.438;5.470;2023-07-31T03:20:43;100601.00;;;22.00
15079;BMP180;6932;51.438;5.470;2023-07-31T03:23:10;100598.00;;;22.00
15079;BMP180;6932;51.438;5.470;2023-07-31T03:25:35;100602.00;;;22.00
15079;BMP180;6932;51.438;5.470;2023-07-31T03:28:01;100602.00;;;22.10
15079;BMP180;6932;51.438;5.470;2023-07-31T03:30:27;100590.00;;;22.10
15079;BMP180;6932;51.438;5.470;2023-07-31T03:32:53;100590.00;;;22.10
15079;BMP180;6932;51.438;5.470;2023-07-31T03:35:18;100581.00;;;22.10
15079;BMP180;6932;51.438;5.470;2023-07-31T03:37:44;100581.00;;;22.10
15079;BMP180;6932;51.438;5.470;2023-07-31T03:40:10;100579.00;;;22.10
15079;BMP180;6932;51.438;5.470;2023-07-31T03:42:36;100573.00;;;22.10
15079;BMP180;6932;51.438;5.470;2023-07-31T03:45:02;100568.00;;;22.10
15079;BMP180;6932;51.438;5.470;2023-07-31T03:47:29;100566.00;;;22.10
15079;BMP180;6932;51.438;5.470;2023-07-31T03:49:54;100563.00;;;22.10
15079;BMP180;6932;51.438;5.470;2023-07-31T03:52:20;100558.00;;;22.10
15079;BMP180;6932;51.438;5.470;2023-07-31T03:54:46;100565.00;;;22.10
15079;BMP180;6932;51.438;5.470;2023-07-31T03:57:11;100564.00;;;22.10
15079;BMP180;6932;51.438;5.470;2023-07-31T03:59:37;100553.00;;;22.20
15079;BMP180;6932;51.438;5.470;2023-07-31T04:02:05;100548.00;;;22.20
15079;BMP180;6932;51.438;5.470;2023-07-31T04:04:31;100553.00;;;22.20
15079;BMP180;6932;51.438;5.470;2023-07-31T04:06:57;100551.00;;;22.20
15079;BMP180;6932;51.438;5.470;2023-07-31T04:09:23;100542.00;;;22.20
15079;BMP180;6932;51.438;5.470;2023-07-31T04:11:48;100548.00;;;22.20
15079;BMP180;6932;51.438;5.470;2023-07-31T04:14:14;100536.00;;;22.20
15079;BMP180;6932;51.438;5.470;2023-07-31T04:16:40;100530.00;;;22.20
15079;BMP180;6932;51.438;5.470;2023-07-31T04:19:05;100529.00;;;22.20
15079;BMP180;6932;51.438;5.470;2023-07-31T04:21:31;100533.00;;;22.20
15079;BMP180;6932;51.438;5.470;2023-07-31T04:23:57;100527.00;;;22.20
15079;BMP180;6932;51.438;5.470;2023-07-31T04:26:23;100522.00;;;22.20
15079;BMP180;6932;51.438;5.470;2023-07-31T04:28:49;100521.00;;;22.20
15079;BMP180;6932;51.438;5.470;2023-07-31T04:31:15;100530.00;;;22.20
15079;BMP180;6932;51.438;5.470;2023-07-31T04:33:41;100523.00;;;22.20
15079;BMP180;6932;51.438;5.470;2023-07-31T04:36:06;100496.00;;;22.30
15079;BMP180;6932;51.438;5.470;2023-07-31T04:38:32;100500.00;;;22.30
15079;BMP180;6932;51.438;5.470;2023-07-31T04:40:58;100514.00;;;22.30
15079;BMP180;6932;51.438;5.470;2023-07-31T04:43:23;100503.00;;;22.30
15079;BMP180;6932;51.438;5.470;2023-07-31T04:45:49;100505.00;;;22.30
15079;BMP180;6932;51.438;5.470;2023-07-31T04:48:16;100511.00;;;22.30
15079;BMP180;6932;51.438;5.470;2023-07-31T04:50:41;100508.00;;;22.30
15079;BMP180;6932;51.438;5.470;2023-07-31T04:53:07;100496.00;;;22.30
15079;BMP180;6932;51.438;5.470;2023-07-31T04:55:33;100506.00;;;22.30
15079;BMP180;6932;51.438;5.470;2023-07-31T04:57:59;100503.00;;;22.30
15079;BMP180;6932;51.438;5.470;2023-07-31T05:00:25;100499.00;;;22.30
15079;BMP180;6932;51.438;5.470;2023-07-31T05:02:51;100500.00;;;22.30
15079;BMP180;6932;51.438;5.470;2023-07-31T05:05:16;100493.00;;;22.30
15079;BMP180;6932;51.438;5.470;2023-07-31T05:07:42;100495.00;;;22.30
15079;BMP180;6932;51.438;5.470;2023-07-31T05:10:09;100486.00;;;22.30
15079;BMP180;6932;51.438;5.470;2023-07-31T05:12:34;100487.00;;;22.30
15079;BMP180;6932;51.438;5.470;2023-07-31T05:15:00;100491.00;;;22.30
15079;BMP180;6932;51.438;5.470;2023-07-31T05:17:26;100481.00;;;22.30
15079;BMP180;6932;51.438;5.470;2023-07-31T05:19:52;100491.00;;;22.30
15079;BMP180;6932;51.438;5.470;2023-07-31T05:22:17;100484.00;;;22.30
15079;BMP180;6932;51.438;5.470;2023-07-31T05:24:43;100481.00;;;22.30
15079;BMP180;6932;51.438;5.470;2023-07-31T05:27:09;100487.00;;;22.30
15079;BMP180;6932;51.438;5.470;2023-07-31T05:29:35;100483.00;;;22.30
15079;BMP180;6932;51.438;5.470;2023-07-31T05:32:01;100480.00;;;22.30
15079;BMP180;6932;51.438;5.470;2023-07-31T05:34:27;100481.00;;;22.20
15079;BMP180;6932;51.438;5.470;2023-07-31T05:36:53;100490.00;;;22.20
15079;BMP180;6932;51.438;5.470;2023-07-31T05:39:19;100480.00;;;22.20
15079;BMP180;6932;51.438;5.470;2023-07-31T05:41:45;100476.00;;;22.20
15079;BMP180;6932;51.438;5.470;2023-07-31T05:44:11;100476.00;;;22.20
15079;BMP180;6932;51.438;5.470;2023-07-31T05:46:36;100476.00;;;22.20
15079;BMP180;6932;51.438;5.470;2023-07-31T05:49:02;100475.00;;;22.20
15079;BMP180;6932;51.438;5.470;2023-07-31T05:51:28;100481.00;;;22.20
15079;BMP180;6932;51.438;5.470;2023-07-31T05:53:54;100464.00;;;22.20
15079;BMP180;6932;51.438;5.470;2023-07-31T05:56:20;100473.00;;;22.20
15079;BMP180;6932;51.438;5.470;2023-07-31T05:58:45;100458.00;;;22.10
15079;BMP180;6932;51.438;5.470;2023-07-31T06:01:11;100468.00;;;22.10
15079;BMP180;6932;51.438;5.470;2023-07-31T06:03:37;100452.00;;;22.10
15079;BMP180;6932;51.438;5.470;2023-07-31T06:06:02;100449.00;;;22.10
15079;BMP180;6932;51.438;5.470;2023-07-31T06:08:28;100454.00;;;22.10
15079;BMP180;6932;51.438;5.470;2023-07-31T06:10:54;100451.00;;;22.00
15079;BMP180;6932;51.438;5.470;2023-07-31T06:13:20;100453.00;;;22.00
15079;BMP180;6932;51.438;5.470;2023-07-31T06:15:45;100449.00;;;22.00
15079;BMP180;6932;51.438;5.470;2023-07-31T06:18:11;100452.00;;;22.00
15079;BMP180;6932;51.438;5.470;2023-07-31T06:20:37;100449.00;;;22.00
15079;BMP180;6932;51.438;5.470;2023-07-31T06:23:06;100437.00;;;21.90
15079;BMP180;6932;51.438;5.470;2023-07-31T06:25:31;100447.00;;;21.90
15079;BMP180;6932;51.438;5.470;2023-07-31T06:27:57;100447.00;;;21.90
15079;BMP180;6932;51.438;5.470;2023-07-31T06:30:23;100446.00;;;21.90
15079;BMP180;6932;51.438;5.470;2023-07-31T06:32:49;100447.00;;;21.90
15079;BMP180;6932;51.438;5.470;2023-07-31T06:35:14;100445.00;;;21.90
15079;BMP180;6932;51.438;5.470;2023-07-31T06:37:40;100438.00;;;21.90
15079;BMP180;6932;51.438;5.470;2023-07-31T06:40:09;100424.00;;;21.90
15079;BMP180;6932;51.438;5.470;2023-07-31T06:42:35;100432.00;;;21.90
15079;BMP180;6932;51.438;5.470;2023-07-31T06:45:02;100428.00;;;21.90
15079;BMP180;6932;51.438;5.470;2023-07-31T06:47:28;100429.00;;;21.90
15079;BMP180;6932;51.438;5.470;2023-07-31T06:49:54;100413.00;;;21.90
15079;BMP180;6932;51.438;5.470;2023-07-31T06:52:20;100412.00;;;21.90
15079;BMP180;6932;51.438;5.470;2023-07-31T06:55:15;100425.00;;;21.80
15079;BMP180;6932;51.438;5.470;2023-07-31T06:57:43;100421.00;;;21.90
15079;BMP180;6932;51.438;5.470;2023-07-31T07:00:10;100415.00;;;21.90
15079;BMP180;6932;51.438;5.470;2023-07-31T07:02:36;100427.00;;;21.90
15079;BMP180;6932;51.438;5.470;2023-07-31T07:05:02;100420.00;;;21.90
15079;BMP180;6932;51.438;5.470;2023-07-31T07:07:28;100412.00;;;21.90
15079;BMP180;6932;51.438;5.470;2023-07-31T07:09:53;100426.00;;;21.90
15079;BMP180;6932;51.438;5.470;2023-07-31T07:12:19;100417.00;;;21.90
15079;BMP180;6932;51.438;5.470;2023-07-31T07:14:45;100414.00;;;21.90
15079;BMP180;6932;51.438;5.470;2023-07-31T07:17:13;100405.00;;;21.90
15079;BMP180;6932;51.438;5.470;2023-07-31T07:19:40;100395.00;;;21.90
15079;BMP180;6932;51.438;5.470;2023-07-31T07:22:07;100406.00;;;21.90
15079;BMP180;6932;51.438;5.470;2023-07-31T07:24:33;100395.00;;;21.90
15079;BMP180;6932;51.438;5.470;2023-07-31T07:26:59;100390.00;;;21.90
15079;BMP180;6932;51.438;5.470;2023-07-31T07:29:24;100384.00;;;21.90
15079;BMP180;6932;51.438;5.470;2023-07-31T07:31:50;100386.00;;;21.90
15079;BMP180;6932;51.438;5.470;2023-07-31T07:34:16;100392.00;;;21.80
15079;BMP180;6932;51.438;5.470;2023-07-31T07:36:42;100393.00;;;21.90
15079;BMP180;6932;51.438;5.470;2023-07-31T07:39:10;100399.00;;;21.90
15079;BMP180;6932;51.438;5.470;2023-07-31T07:41:35;100398.00;;;21.90
15079;BMP180;6932;51.438;5.470;2023-07-31T07:44:01;100400.00;;;21.90
15079;BMP180;6932;51.438;5.470;2023-07-31T07:46:27;100404.00;;;21.90
15079;BMP180;6932;51.438;5.470;2023-07-31T07:48:52;100401.00;;;21.90
15079;BMP180;6932;51.438;5.470;2023-07-31T07:51:18;100403.00;;;21.90
15079;BMP180;6932;51.438;5.470;2023-07-31T07:53:44;100400.00;;;21.90
15079;BMP180;6932;51.438;5.470;2023-07-31T07:56:09;100406.00;;;21.90
15079;BMP180;6932;51.438;5.470;2023-07-31T07:58:35;100400.00;;;21.90
15079;BMP180;6932;51.438;5.470;2023-07-31T08:01:01;100391.00;;;21.90
15079;BMP180;6932;51.438;5.470;2023-07-31T08:03:27;100398.00;;;21.90
15079;BMP180;6932;51.438;5.470;2023-07-31T08:05:58;100382.00;;;21.80
15079;BMP180;6932;51.438;5.470;2023-07-31T08:08:23;100399.00;;;21.90
15079;BMP180;6932;51.438;5.470;2023-07-31T08:10:49;100389.00;;;21.90
15079;BMP180;6932;51.438;5.470;2023-07-31T08:13:15;100395.00;;;21.90
15079;BMP180;6932;51.438;5.470;2023-07-31T08:15:44;100395.00;;;21.90
15079;BMP180;6932;51.438;5.470;2023-07-31T08:18:10;100391.00;;;21.90
15079;BMP180;6932;51.438;5.470;2023-07-31T08:20:37;100390.00;;;21.90
15079;BMP180;6932;51.438;5.470;2023-07-31T08:23:03;100393.00;;;21.90
15079;BMP180;6932;51.438;5.470;2023-07-31T08:25:30;100392.00;;;21.90
15079;BMP180;6932;51.438;5.470;2023-07-31T08:27:55;100385.00;;;21.90
15079;BMP180;6932;51.438;5.470;2023-07-31T08:30:21;100386.00;;;21.90
15079;BMP180;6932;51.438;5.470;2023-07-31T08:32:47;100394.00;;;21.90
15079;BMP180;6932;51.438;5.470;2023-07-31T08:35:13;100387.00;;;21.90
15079;BMP180;6932;51.438;5.470;2023-07-31T08:37:39;100388.00;;;22.00
15079;BMP180;6932;51.438;5.470;2023-07-31T08:40:06;100396.00;;;22.00
15079;BMP180;6932;51.438;5.470;2023-07-31T08:42:32;100399.00;;;22.00
15079;BMP180;6932;51.438;5.470;2023-07-31T08:44:59;100389.00;;;22.00
15079;BMP180;6932;51.438;5.470;2023-07-31T08:47:27;100390.00;;;22.00
15079;BMP180;6932;51.438;5.470;2023-07-31T08:49:55;100387.00;;;22.00
15079;BMP180;6932;51.438;5.470;2023-07-31T08:52:21;100393.00;;;22.00
15079;BMP180;6932;51.438;5.470;2023-07-31T08:54:47;100396.00;;;22.00
15079;BMP180;6932;51.438;5.470;2023-07-31T08:57:13;100389.00;;;22.00
15079;BMP180;6932;51.438;5.470;2023-07-31T08:59:41;100381.00;;;22.00
15079;BMP180;6932;51.438;5.470;2023-07-31T09:02:08;100382.00;;;22.00
15079;BMP180;6932;51.438;5.470;2023-07-31T09:04:34;100386.00;;;22.00
15079;BMP180;6932;51.438;5.470;2023-07-31T09:07:02;100386.00;;;22.10
15079;BMP180;6932;51.438;5.470;2023-07-31T09:09:31;100377.00;;;22.10
15079;BMP180;6932;51.438;5.470;2023-07-31T09:11:58;100377.00;;;22.10
15079;BMP180;6932;51.438;5.470;2023-07-31T09:14:25;100377.00;;;22.10
15079;BMP180;6932;51.438;5.470;2023-07-31T09:16:53;100370.00;;;22.20
15079;BMP180;6932;51.438;5.470;2023-07-31T09:19:28;100375.00;;;22.10
15079;BMP180;6932;51.438;5.470;2023-07-31T09:21:54;100372.00;;;22.20
15079;BMP180;6932;51.438;5.470;2023-07-31T09:24:33;100372.00;;;22.20
15079;BMP180;6932;51.438;5.470;2023-07-31T09:27:01;100380.00;;;22.30
15079;BMP180;6932;51.438;5.470;2023-07-31T09:29:28;100363.00;;;22.30
15079;BMP180;6932;51.438;5.470;2023-07-31T09:31:55;100366.00;;;22.30
15079;BMP180;6932;51.438;5.470;2023-07-31T09:34:30;100366.00;;;22.30
15079;BMP180;6932;51.438;5.470;2023-07-31T09:37:01;100362.00;;;22.40
15079;BMP180;6932;51.438;5.470;2023-07-31T09:39:29;100346.00;;;22.40
15079;BMP180;6932;51.438;5.470;2023-07-31T09:41:56;100367.00;;;22.50
15079;BMP180;6932;51.438;5.470;2023-07-31T09:44:37;100368.00;;;22.40
15079;BMP180;6932;51.438;5.470;2023-07-31T09:47:04;100356.00;;;22.50
15079;BMP180;6932;51.438;5.470;2023-07-31T09:49:30;100354.00;;;22.50
15079;BMP180;6932;51.438;5.470;2023-07-31T09:51:55;100350.00;;;22.60
15079;BMP180;6932;51.438;5.470;2023-07-31T09:54:21;100349.00;;;22.60
15079;BMP180;6932;51.438;5.470;2023-07-31T09:56:49;100349.00;;;22.60
15079;BMP180;6932;51.438;5.470;2023-07-31T09:59:18;100349.00;;;22.60
15079;BMP180;6932;51.438;5.470;2023-07-31T10:01:46;100345.00;;;22.70
15079;BMP180;6932;51.438;5.470;2023-07-31T10:04:13;100335.00;;;22.70
15079;BMP180;6932;51.438;5.470;2023-07-31T10:06:42;100353.00;;;22.70
15079;BMP180;6932;51.438;5.470;2023-07-31T10:09:14;100360.00;;;22.70
15079;BMP180;6932;51.438;5.470;2023-07-31T10:11:53;100355.00;;;22.70
15079;BMP180;6932;51.438;5.470;2023-07-31T10:14:24;100336.00;;;22.80
15079;BMP180;6932;51.438;5.470;2023-07-31T10:16:52;100347.00;;;22.80
15079;BMP180;6932;51.438;5.470;2023-07-31T10:19:20;100349.00;;;22.80
15079;BMP180;6932;51.438;5.470;2023-07-31T10:21:48;100344.00;;;22.80
15079;BMP180;6932;51.438;5.470;2023-07-31T10:24:15;100344.00;;;22.80
15079;BMP180;6932;51.438;5.470;2023-07-31T10:26:47;100338.00;;;22.80
15079;BMP180;6932;51.438;5.470;2023-07-31T10:29:16;100348.00;;;22.80
15079;BMP180;6932;51.438;5.470;2023-07-31T10:31:44;100344.00;;;22.80
15079;BMP180;6932;51.438;5.470;2023-07-31T10:34:10;100336.00;;;22.90
15079;BMP180;6932;51.438;5.470;2023-07-31T10:36:36;100336.00;;;22.90
15079;BMP180;6932;51.438;5.470;2023-07-31T10:39:04;100347.00;;;22.90
15079;BMP180;6932;51.438;5.470;2023-07-31T10:41:50;100345.00;;;23.00
15079;BMP180;6932;51.438;5.470;2023-07-31T10:44:17;100345.00;;;23.00
15079;BMP180;6932;51.438;5.470;2023-07-31T10:46:45;100354.00;;;23.00
15079;BMP180;6932;51.438;5.470;2023-07-31T10:49:21;100351.00;;;23.00
15079;BMP180;6932;51.438;5.470;2023-07-31T10:51:47;100346.00;;;23.10
15079;BMP180;6932;51.438;5.470;2023-07-31T10:54:15;100338.00;;;23.10
15079;BMP180;6932;51.438;5.470;2023-07-31T10:56:46;100338.00;;;23.10
15079;BMP180;6932;51.438;5.470;2023-07-31T10:59:15;100326.00;;;23.20
15079;BMP180;6932;51.438;5.470;2023-07-31T11:01:56;100333.00;;;23.20
15079;BMP180;6932;51.438;5.470;2023-07-31T11:04:29;100331.00;;;23.20
15079;BMP180;6932;51.438;5.470;2023-07-31T11:07:02;100323.00;;;23.30
15079;BMP180;6932;51.438;5.470;2023-07-31T11:09:32;100334.00;;;23.30
15079;BMP180;6932;51.438;5.470;2023-07-31T11:12:00;100335.00;;;23.30
15079;BMP180;6932;51.438;5.470;2023-07-31T11:14:26;100335.00;;;23.40
15079;BMP180;6932;51.438;5.470;2023-07-31T11:16:52;100322.00;;;23.40
15079;BMP180;6932;51.438;5.470;2023-07-31T11:19:25;100335.00;;;23.40
15079;BMP180;6932;51.438;5.470;2023-07-31T11:21:52;100332.00;;;23.40
15079;BMP180;6932;51.438;5.470;2023-07-31T11:24:19;100334.00;;;23.40
15079;BMP180;6932;51.438;5.470;2023-07-31T11:26:52;100339.00;;;23.40
15079;BMP180;6932;51.438;5.470;2023-07-31T11:29:20;100320.00;;;23.50
15079;BMP180;6932;51.438;5.470;2023-07-31T11:31:47;100335.00;;;23.50
15079;BMP180;6932;51.438;5.470;2023-07-31T11:34:14;100309.00;;;23.60
15079;BMP180;6932;51.438;5.470;2023-07-31T11:36:40;100313.00;;;23.60
15079;BMP180;6932;51.438;5.470;2023-07-31T11:39:09;100312.00;;;23.60
15079;BMP180;6932;51.438;5.470;2023-07-31T11:41:35;100323.00;;;23.60
15079;BMP180;6932;51.438;5.470;2023-07-31T11:44:01;100311.00;;;23.70
15079;BMP180;6932;51.438;5.470;2023-07-31T11:46:30;100322.00;;;23.70
15079;BMP180;6932;51.438;5.470;2023-07-31T11:49:00;100320.00;;;23.60
15079;BMP180;6932;51.438;5.470;2023-07-31T11:51:27;100331.00;;;23.60
15079;BMP180;6932;51.438;5.470;2023-07-31T11:53:58;100305.00;;;23.60
15079;BMP180;6932;51.438;5.470;2023-07-31T11:56:26;100309.00;;;23.60
15079;BMP180;6932;51.438;5.470;2023-07-31T11:58:59;100312.00;;;23.50
15079;BMP180;6932;51.438;5.470;2023-07-31T12:01:27;100306.00;;;23.50
15079;BMP180;6932;51.438;5.470;2023-07-31T12:03:54;100305.00;;;23.50
15079;BMP180;6932;51.438;5.470;2023-07-31T12:06:20;100308.00;;;23.50
15079;BMP180;6932;51.438;5.470;2023-07-31T12:08:48;100306.00;;;23.40
15079;BMP180;6932;51.438;5.470;2023-07-31T12:11:14;100317.00;;;23.40
15079;BMP180;6932;51.438;5.470;2023-07-31T12:13:40;100309.00;;;23.40
15079;BMP180;6932;51.438;5.470;2023-07-31T12:16:06;100300.00;;;23.40
15079;BMP180;6932;51.438;5.470;2023-07-31T12:18:37;100316.00;;;23.40
15079;BMP180;6932;51.438;5.470;2023-07-31T12:21:08;100306.00;;;23.40
15079;BMP180;6932;51.438;5.470;2023-07-31T12:23:36;100300.00;;;23.50
15079;BMP180;6932;51.438;5.470;2023-07-31T12:26:11;100289.00;;;23.40
15079;BMP180;6932;51.438;5.470;2023-07-31T12:28:38;100272.00;;;23.50
15079;BMP180;6932;51.438;5.470;2023-07-31T12:31:08;100279.00;;;23.50
15079;BMP180;6932;51.438;5.470;2023-07-31T12:33:36;100271.00;;;23.50
15079;BMP180;6932;51.438;5.470;2023-07-31T12:36:14;100260.00;;;23.60
15079;BMP180;6932;51.438;5.470;2023-07-31T12:38:41;100263.00;;;23.60
15079;BMP180;6932;51.438;5.470;2023-07-31T12:41:07;100281.00;;;23.60
15079;BMP180;6932;51.438;5.470;2023-07-31T12:43:39;100278.00;;;23.60
15079;BMP180;6932;51.438;5.470;2023-07-31T12:46:06;100271.00;;;23.70
15079;BMP180;6932;51.438;5.470;2023-07-31T12:48:39;100262.00;;;23.70
15079;BMP180;6932;51.438;5.470;2023-07-31T12:51:05;100264.00;;;23.70
15079;BMP180;6932;51.438;5.470;2023-07-31T12:53:32;100250.00;;;23.70
15079;BMP180;6932;51.438;5.470;2023-07-31T12:55:58;100254.00;;;23.70
15079;BMP180;6932;51.438;5.470;2023-07-31T12:58:24;100239.00;;;23.80
15079;BMP180;6932;51.438;5.470;2023-07-31T13:00:51;100246.00;;;23.80
15079;BMP180;6932;51.438;5.470;2023-07-31T13:03:17;100245.00;;;23.80
15079;BMP180;6932;51.438;5.470;2023-07-31T13:05:42;100240.00;;;23.80
15079;BMP180;6932;51.438;5.470;2023-07-31T13:08:08;100244.00;;;23.90
15079;BMP180;6932;51.438;5.470;2023-07-31T13:10:34;100240.00;;;23.90
15079;BMP180;6932;51.438;5.470;2023-07-31T13:12:59;100252.00;;;23.90
15079;BMP180;6932;51.438;5.470;2023-07-31T13:15:25;100253.00;;;23.90
15079;BMP180;6932;51.438;5.470;2023-07-31T13:17:51;100252.00;;;23.90
15079;BMP180;6932;51.438;5.470;2023-07-31T13:20:16;100247.00;;;24.00
15079;BMP180;6932;51.438;5.470;2023-07-31T13:22:42;100246.00;;;24.00
15079;BMP180;6932;51.438;5.470;2023-07-31T13:25:08;100244.00;;;24.00
15079;BMP180;6932;51.438;5.470;2023-07-31T13:27:35;100241.00;;;24.00
15079;BMP180;6932;51.438;5.470;2023-07-31T13:30:02;100218.00;;;24.00
15079;BMP180;6932;51.438;5.470;2023-07-31T13:32:27;100231.00;;;24.00
15079;BMP180;6932;51.438;5.470;2023-07-31T13:34:53;100221.00;;;24.10
15079;BMP180;6932;51.438;5.470;2023-07-31T13:37:19;100215.00;;;24.10
15079;BMP180;6932;51.438;5.470;2023-07-31T13:39:45;100219.00;;;24.10
15079;BMP180;6932;51.438;5.470;2023-07-31T13:42:10;100213.00;;;24.00
15079;BMP180;6932;51.438;5.470;2023-07-31T13:44:39;100207.00;;;24.00
15079;BMP180;6932;51.438;5.470;2023-07-31T13:47:05;100223.00;;;24.00
15079;BMP180;6932;51.438;5.470;2023-07-31T13:49:32;100207.00;;;24.00
15079;BMP180;6932;51.438;5.470;2023-07-31T13:51:58;100226.00;;;24.00
15079;BMP180;6932;51.438;5.470;2023-07-31T13:54:24;100225.00;;;24.00
15079;BMP180;6932;51.438;5.470;2023-07-31T13:56:52;100228.00;;;24.00
15079;BMP180;6932;51.438;5.470;2023-07-31T13:59:18;100221.00;;;23.90
15079;BMP180;6932;51.438;5.470;2023-07-31T14:01:44;100211.00;;;23.90
15079;BMP180;6932;51.438;5.470;2023-07-31T14:04:10;100207.00;;;23.90
15079;BMP180;6932;51.438;5.470;2023-07-31T14:06:37;100206.00;;;23.90
15079;BMP180;6932;51.438;5.470;2023-07-31T14:09:02;100218.00;;;23.90
15079;BMP180;6932;51.438;5.470;2023-07-31T14:11:31;100204.00;;;23.80
15079;BMP180;6932;51.438;5.470;2023-07-31T14:13:56;100227.00;;;23.80
15079;BMP180;6932;51.438;5.470;2023-07-31T14:16:23;100219.00;;;23.80
15079;BMP180;6932;51.438;5.470;2023-07-31T14:18:49;100201.00;;;23.80